createdAt,value
2023-03-02T00:03:18.027Z,41.38
2023-03-02T00:06:13.577Z,41.42
2023-03-02T00:09:13.064Z,41.24
2023-03-02T00:14:53.371Z,40.83
2023-03-02T00:21:38.593Z,41.01
2023-03-02T00:24:12.750Z,40.73
2023-03-02T00:26:52.554Z,40.63
2023-03-02T00:29:26.466Z,40.66
2023-03-02T00:32:17.602Z,40.84
2023-03-02T00:34:54.902Z,41.05
2023-03-02T00:37:46.993Z,40.64
2023-03-02T00:40:45.805Z,40.80
2023-03-02T00:43:21.395Z,40.94
2023-03-02T00:45:53.450Z,40.62
2023-03-02T00:48:26.771Z,41.58
2023-03-02T00:51:14.325Z,40.94
2023-03-02T00:53:50.510Z,42.26
2023-03-02T00:56:26.478Z,41.62
2023-03-02T00:59:40.921Z,41.17
2023-03-02T01:02:29.044Z,40.88
2023-03-02T01:06:26.963Z,41.14
2023-03-02T01:17:03.581Z,41.41
2023-03-02T01:20:25.548Z,41.21
2023-03-02T01:29:47.417Z,40.93
2023-03-02T01:34:19.071Z,40.84
2023-03-02T01:36:54.305Z,40.47
2023-03-02T01:39:36.650Z,39.92
2023-03-02T01:42:10.741Z,39.82
2023-03-02T01:44:52.716Z,39.70
2023-03-02T01:47:36.808Z,39.75
2023-03-02T01:50:26.627Z,39.70
2023-03-02T01:53:09.703Z,39.72
2023-03-02T01:55:47.098Z,39.87
2023-03-02T01:58:25.103Z,40.00
2023-03-02T02:01:02.203Z,39.73
2023-03-02T02:03:36.746Z,39.69
2023-03-02T02:06:34.850Z,40.04
2023-03-02T02:09:12.889Z,39.86
2023-03-02T02:11:49.244Z,39.51
2023-03-02T02:14:20.756Z,39.60
2023-03-02T02:16:54.390Z,39.52
2023-03-02T02:20:14.146Z,39.91
2023-03-02T02:22:49.209Z,40.12
2023-03-02T02:25:47.086Z,39.84
2023-03-02T02:28:24.805Z,39.97
2023-03-02T02:31:25.344Z,39.66
2023-03-02T02:34:07.998Z,39.73
2023-03-02T02:36:49.601Z,40.00
2023-03-02T02:39:26.502Z,39.94
2023-03-02T02:42:13.254Z,39.72
2023-03-02T02:44:45.858Z,39.73
2023-03-02T02:47:22.913Z,39.61
2023-03-02T02:50:01.241Z,39.65
2023-03-02T02:52:36.368Z,40.06
2023-03-02T02:55:25.366Z,39.85
2023-03-02T02:58:14.858Z,39.77
2023-03-02T03:00:46.610Z,39.62
2023-03-02T03:03:37.201Z,39.50
2023-03-02T03:06:15.122Z,39.53
2023-03-02T03:08:48.326Z,39.53
2023-03-02T03:11:34.366Z,39.39
2023-03-02T03:14:34.541Z,39.65
2023-03-02T03:17:14.012Z,39.45
2023-03-02T03:19:54.485Z,39.96
2023-03-02T03:22:39.133Z,39.31
2023-03-02T03:25:17.734Z,39.09
2023-03-02T03:27:50.024Z,39.15
2023-03-02T03:30:24.735Z,39.18
2023-03-02T03:32:56.649Z,39.19
2023-03-02T03:35:34.149Z,39.14
2023-03-02T03:38:09.389Z,39.10
2023-03-02T03:40:39.841Z,39.09
2023-03-02T03:43:11.031Z,38.89
2023-03-02T03:45:47.192Z,38.80
2023-03-02T03:48:17.327Z,38.89
2023-03-02T03:50:46.611Z,38.69
2023-03-02T03:53:17.517Z,38.63
2023-03-02T03:55:46.465Z,38.77
2023-03-02T03:58:17.477Z,38.70
2023-03-02T04:00:49.577Z,39.77
2023-03-02T04:03:22.210Z,38.71
2023-03-02T04:05:54.238Z,39.32
2023-03-02T04:08:28.035Z,39.39
2023-03-02T04:11:02.376Z,38.61
2023-03-02T04:13:34.099Z,38.47
2023-03-02T04:16:05.823Z,38.55
2023-03-02T04:18:35.131Z,38.51
2023-03-02T04:21:08.959Z,38.54
2023-03-02T04:23:38.732Z,39.08
2023-03-02T04:26:10.831Z,39.19
2023-03-02T04:28:42.443Z,39.37
2023-03-02T04:31:13.536Z,39.61
2023-03-02T04:33:49.008Z,39.57
2023-03-02T04:36:20.979Z,39.67
2023-03-02T04:38:54.532Z,39.67
2023-03-02T04:41:37.880Z,39.16
2023-03-02T04:44:09.185Z,38.96
2023-03-02T04:46:39.202Z,39.36
2023-03-02T04:49:11.186Z,39.34
2023-03-02T04:51:49.002Z,38.98
2023-03-02T04:54:26.506Z,39.38
2023-03-02T04:57:02.196Z,39.64
2023-03-02T04:59:33.950Z,39.53
2023-03-02T05:02:08.970Z,39.48
2023-03-02T05:04:42.728Z,38.67
2023-03-02T05:07:16.313Z,38.32
2023-03-02T05:09:46.291Z,38.22
2023-03-02T05:12:18.401Z,38.20
2023-03-02T05:14:50.555Z,38.66
2023-03-02T05:17:22.039Z,38.39
2023-03-02T05:19:50.896Z,38.34
2023-03-02T05:22:25.490Z,38.36
2023-03-02T05:25:00.870Z,38.25
2023-03-02T05:27:35.253Z,38.22
2023-03-02T05:30:08.802Z,38.20
2023-03-02T05:32:41.827Z,38.65
2023-03-02T05:35:14.343Z,39.04
2023-03-02T05:37:47.018Z,38.17
2023-03-02T05:40:25.470Z,38.19
2023-03-02T05:42:56.138Z,38.61
2023-03-02T05:45:43.299Z,38.28
2023-03-02T05:48:14.765Z,38.42
2023-03-02T05:50:46.590Z,38.16
2023-03-02T05:53:16.791Z,38.08
2023-03-02T05:55:46.243Z,38.17
2023-03-02T05:58:21.830Z,38.21
2023-03-02T06:00:51.026Z,38.25
2023-03-02T06:03:27.685Z,38.21
2023-03-02T06:06:06.030Z,38.18
2023-03-02T06:08:42.182Z,38.10
2023-03-02T06:11:12.743Z,38.14
2023-03-02T06:13:43.141Z,38.10
2023-03-02T06:16:14.742Z,38.10
2023-03-02T06:18:49.536Z,38.18
2023-03-02T06:21:18.811Z,38.17
2023-03-02T06:23:50.754Z,38.15
2023-03-02T06:26:22.235Z,38.29
2023-03-02T06:28:53.981Z,38.19
2023-03-02T06:31:24.775Z,38.19
2023-03-02T06:33:54.792Z,38.15
2023-03-02T06:36:34.194Z,38.49
2023-03-02T06:39:07.906Z,38.49
2023-03-02T06:41:38.711Z,38.53
2023-03-02T06:44:13.192Z,38.39
2023-03-02T06:46:46.346Z,38.25
2023-03-02T06:49:19.055Z,38.29
2023-03-02T06:51:54.718Z,38.34
2023-03-02T06:54:34.210Z,38.66
2023-03-02T06:57:06.181Z,38.94
2023-03-02T06:59:38.029Z,39.53
2023-03-02T07:02:08.470Z,38.62
2023-03-02T07:04:41.744Z,38.44
2023-03-02T07:07:13.512Z,38.53
2023-03-02T07:09:45.496Z,38.43
2023-03-02T07:12:15.233Z,38.34
2023-03-02T07:14:46.625Z,38.29
2023-03-02T07:17:21.691Z,38.37
2023-03-02T07:19:50.867Z,38.51
2023-03-02T07:22:22.631Z,38.52
2023-03-02T07:24:53.912Z,38.48
2023-03-02T07:27:26.465Z,38.58
2023-03-02T07:30:05.325Z,38.65
2023-03-02T07:32:37.608Z,38.70
2023-03-02T07:35:09.148Z,38.74
2023-03-02T07:37:45.770Z,38.77
2023-03-02T07:40:19.486Z,38.80
2023-03-02T07:42:53.071Z,38.79
2023-03-02T07:45:26.584Z,38.78
2023-03-02T07:48:10.292Z,38.91
2023-03-02T07:50:41.118Z,38.79
2023-03-02T07:53:11.194Z,38.74
2023-03-02T07:55:45.997Z,38.67
2023-03-02T07:58:16.293Z,38.69
2023-03-02T08:00:47.268Z,38.58
2023-03-02T08:03:21.175Z,38.61
2023-03-02T08:05:54.528Z,38.97
2023-03-02T08:08:39.016Z,38.75
2023-03-02T08:11:18.911Z,38.74
2023-03-02T08:13:59.063Z,38.79
2023-03-02T08:16:37.700Z,38.71
2023-03-02T08:19:13.210Z,38.73
2023-03-02T08:21:42.583Z,38.76
2023-03-02T08:24:16.523Z,38.75
2023-03-02T08:26:46.281Z,38.84
2023-03-02T08:29:17.522Z,38.75
2023-03-02T08:31:46.756Z,38.68
2023-03-02T08:34:17.469Z,38.65
2023-03-02T08:36:48.493Z,38.66
2023-03-02T08:39:21.010Z,38.62
2023-03-02T08:41:56.560Z,38.69
2023-03-02T08:44:38.384Z,38.60
2023-03-02T08:47:10.464Z,38.62
2023-03-02T08:49:45.141Z,38.56
2023-03-02T08:52:16.886Z,38.52
2023-03-02T08:54:48.966Z,38.61
2023-03-02T08:57:20.978Z,38.57
2023-03-02T08:59:54.116Z,38.53
2023-03-02T09:02:24.572Z,38.72
2023-03-02T09:04:55.241Z,38.62
2023-03-02T09:07:25.540Z,38.62
2023-03-02T09:09:54.864Z,38.62
2023-03-02T09:12:35.171Z,38.67
2023-03-02T09:15:08.702Z,38.83
2023-03-02T09:17:45.654Z,38.86
2023-03-02T09:20:16.598Z,38.91
2023-03-02T09:22:53.195Z,38.92
2023-03-02T09:25:31.810Z,38.97
2023-03-02T09:28:14.652Z,39.05
2023-03-02T09:31:05.465Z,39.12
2023-03-02T09:33:39.150Z,38.95
2023-03-02T09:36:13.944Z,38.90
2023-03-02T09:38:46.767Z,38.69
2023-03-02T09:41:24.359Z,38.64
2023-03-02T09:44:44.323Z,38.93
2023-03-02T09:47:41.416Z,39.06
2023-03-02T09:50:46.820Z,39.16
2023-03-02T09:54:11.268Z,39.16
2023-03-02T09:56:46.574Z,39.18
2023-03-02T09:59:42.545Z,39.11
2023-03-02T10:02:40.728Z,39.19
2023-03-02T10:05:18.064Z,39.13
2023-03-02T10:07:53.524Z,38.93
2023-03-02T10:11:07.252Z,39.27
2023-03-02T10:13:47.326Z,39.16
2023-03-02T10:16:43.231Z,39.02
2023-03-02T10:19:49.477Z,39.14
2023-03-02T10:22:40.466Z,39.37
2023-03-02T10:25:17.665Z,39.17
2023-03-02T10:28:10.856Z,39.05
2023-03-02T10:30:46.230Z,39.03
2023-03-02T10:33:23.944Z,38.92
2023-03-02T10:35:59.187Z,39.16
2023-03-02T10:38:34.578Z,39.23
2023-03-02T10:41:16.345Z,39.09
2023-03-02T10:43:50.458Z,39.13
2023-03-02T10:46:23.115Z,39.23
2023-03-02T10:49:02.370Z,39.22
2023-03-02T10:51:49.635Z,39.25
2023-03-02T10:54:26.534Z,39.31
2023-03-02T10:57:37.371Z,39.64
2023-03-02T11:00:26.853Z,39.76
2023-03-02T11:03:23.025Z,39.71
2023-03-02T11:06:01.424Z,39.62
2023-03-02T11:08:37.441Z,39.65
2023-03-02T11:11:34.188Z,39.72
2023-03-02T11:14:18.539Z,39.67
2023-03-02T11:16:51.005Z,39.81
2023-03-02T11:19:42.586Z,39.97
2023-03-02T11:22:42.802Z,39.75
2023-03-02T11:25:26.974Z,39.64
2023-03-02T11:28:41.709Z,39.86
2023-03-02T11:31:46.640Z,40.05
2023-03-02T11:34:25.714Z,39.84
2023-03-02T11:37:17.170Z,39.77
2023-03-02T11:40:25.492Z,39.94
2023-03-02T11:43:08.908Z,39.67
2023-03-02T11:45:57.366Z,39.75
2023-03-02T11:48:53.087Z,40.05
2023-03-02T11:51:37.899Z,39.77
2023-03-02T11:54:35.935Z,40.05
2023-03-02T11:57:07.350Z,39.26
2023-03-02T11:59:41.219Z,39.53
2023-03-02T12:02:14.277Z,39.04
2023-03-02T12:04:49.395Z,39.01
2023-03-02T12:07:26.653Z,39.08
2023-03-02T12:10:33.959Z,39.46
2023-03-02T12:13:14.953Z,39.37
2023-03-02T12:16:02.964Z,39.43
2023-03-02T12:18:46.622Z,41.31
2023-03-02T12:21:33.891Z,41.16
2023-03-02T12:24:05.098Z,41.33
2023-03-02T12:26:41.586Z,41.16
2023-03-02T12:29:17.233Z,40.92
2023-03-02T12:32:02.033Z,40.90
2023-03-02T12:35:12.691Z,41.16
2023-03-02T12:38:09.320Z,40.04
2023-03-02T12:41:13.202Z,39.32
2023-03-02T12:44:10.875Z,39.35
2023-03-02T12:46:51.408Z,39.47
2023-03-02T12:50:01.441Z,39.50
2023-03-02T12:52:45.457Z,39.78
2023-03-02T12:55:23.041Z,39.69
2023-03-02T12:58:04.972Z,39.60
2023-03-02T13:01:07.164Z,40.31
2023-03-02T13:03:54.494Z,39.96
2023-03-02T13:06:38.734Z,40.10
2023-03-02T13:09:16.848Z,40.65
2023-03-02T13:11:51.053Z,40.71
2023-03-02T13:14:42.420Z,40.62
2023-03-02T13:17:27.028Z,40.41
2023-03-02T13:20:07.316Z,40.04
2023-03-02T13:22:54.846Z,40.02
2023-03-02T13:26:05.899Z,40.28
2023-03-02T13:28:37.253Z,40.06
2023-03-02T13:31:25.423Z,39.99
2023-03-02T13:34:03.304Z,40.18
2023-03-02T13:40:34.469Z,40.91
2023-03-02T13:43:35.292Z,40.72
2023-03-02T13:46:13.322Z,40.50
2023-03-02T13:49:09.706Z,40.35
2023-03-02T13:51:46.825Z,40.39
2023-03-02T13:54:34.723Z,40.51
2023-03-02T13:57:07.100Z,40.40
2023-03-02T13:59:38.179Z,40.36
2023-03-02T14:02:37.385Z,40.53
2023-03-02T14:05:09.569Z,40.60
2023-03-02T14:07:38.746Z,40.74
2023-03-02T14:10:11.062Z,40.80
2023-03-02T14:12:46.229Z,40.91
2023-03-02T14:15:18.659Z,41.01
2023-03-02T14:17:52.932Z,41.06
2023-03-02T14:20:22.920Z,41.12
2023-03-02T14:22:52.770Z,41.34
2023-03-02T14:25:22.669Z,41.28
2023-03-02T14:27:53.628Z,41.33
2023-03-02T14:30:24.999Z,41.53
2023-03-02T14:32:57.541Z,41.75
2023-03-02T14:35:33.402Z,42.09
2023-03-02T14:38:06.389Z,42.30
2023-03-02T14:40:40.913Z,42.28
2023-03-02T14:43:13.213Z,42.38
2023-03-02T14:45:44.913Z,42.47
2023-03-02T14:48:15.277Z,42.67
2023-03-02T14:50:51.458Z,42.65
2023-03-02T14:53:33.595Z,42.68
2023-03-02T14:56:03.121Z,43.93
2023-03-02T14:58:35.413Z,44.45
2023-03-02T15:01:11.455Z,43.22
2023-03-02T15:03:44.779Z,42.84
2023-03-02T15:06:34.510Z,43.10
2023-03-02T15:09:06.433Z,43.25
2023-03-02T15:11:38.400Z,43.43
2023-03-02T15:14:10.723Z,43.33
2023-03-02T15:16:41.404Z,43.79
2023-03-02T15:19:12.747Z,43.86
2023-03-02T15:21:46.144Z,43.55
2023-03-02T15:24:14.980Z,43.62
2023-03-02T15:26:45.784Z,44.58
2023-03-02T15:29:15.054Z,44.81
2023-03-02T15:31:46.577Z,44.30
2023-03-02T15:34:18.236Z,44.53
2023-03-02T15:36:46.835Z,44.48
2023-03-02T15:39:18.651Z,44.73
2023-03-02T15:41:48.774Z,44.84
2023-03-02T15:44:22.664Z,44.98
2023-03-02T15:46:56.783Z,45.30
2023-03-02T15:49:31.379Z,45.41
2023-03-02T15:52:02.417Z,45.18
2023-03-02T15:54:33.083Z,45.24
2023-03-02T15:57:02.921Z,45.38
2023-03-02T15:59:34.858Z,45.24
2023-03-02T16:02:06.534Z,45.25
2023-03-02T16:04:44.946Z,45.21
2023-03-02T16:07:13.992Z,45.30
2023-03-02T16:09:42.906Z,46.24
2023-03-02T16:12:13.318Z,46.04
2023-03-02T16:14:42.545Z,45.93
2023-03-02T16:17:12.639Z,45.79
2023-03-02T16:19:42.480Z,45.84
2023-03-02T16:22:12.336Z,45.63
2023-03-02T16:24:42.128Z,45.66
2023-03-02T16:27:12.169Z,46.57
2023-03-02T16:29:40.618Z,46.83
2023-03-02T16:32:45.279Z,46.71
2023-03-02T16:35:14.868Z,46.59
2023-03-02T16:37:46.138Z,46.08
2023-03-02T16:40:17.873Z,45.83
2023-03-02T16:42:47.129Z,46.07
2023-03-02T16:45:17.770Z,45.92
2023-03-02T16:47:47.732Z,46.51
2023-03-02T16:50:21.208Z,46.41
2023-03-02T16:52:54.222Z,46.11
2023-03-02T16:55:26.086Z,46.24
2023-03-02T16:58:38.793Z,46.50
2023-03-02T17:01:12.592Z,46.43
2023-03-02T17:03:42.888Z,47.12
2023-03-02T17:06:17.643Z,46.85
2023-03-02T17:08:47.376Z,46.91
2023-03-02T17:11:17.845Z,46.38
2023-03-02T17:13:46.651Z,46.14
2023-03-02T17:16:17.844Z,46.08
2023-03-02T17:18:48.231Z,46.05
2023-03-02T17:21:20.420Z,46.19
2023-03-02T17:23:50.211Z,46.08
2023-03-02T17:26:19.186Z,46.16
2023-03-02T17:28:50.271Z,46.41
2023-03-02T17:31:19.460Z,46.05
2023-03-02T17:33:50.640Z,46.22
2023-03-02T17:36:22.725Z,45.97
2023-03-02T17:38:52.934Z,46.18
2023-03-02T17:41:22.981Z,46.38
2023-03-02T17:43:53.709Z,45.96
2023-03-02T17:46:26.606Z,46.74
2023-03-02T17:49:05.116Z,46.63
2023-03-02T17:51:35.419Z,46.45
2023-03-02T17:54:06.611Z,46.14
2023-03-02T17:56:37.753Z,46.11
2023-03-02T17:59:08.686Z,46.19
2023-03-02T18:01:40.357Z,46.23
2023-03-02T18:04:10.869Z,46.20
2023-03-02T18:06:42.778Z,46.52
2023-03-02T18:09:13.600Z,46.34
2023-03-02T18:11:44.014Z,46.64
2023-03-02T18:14:17.870Z,46.67
2023-03-02T18:16:48.599Z,46.86
2023-03-02T18:19:18.198Z,46.35
2023-03-02T18:21:49.787Z,47.04
2023-03-02T18:24:18.774Z,46.65
2023-03-02T18:26:50.710Z,47.03
2023-03-02T18:29:23.412Z,46.77
2023-03-02T18:31:54.365Z,47.12
2023-03-02T18:34:24.859Z,46.80
2023-03-02T18:36:54.986Z,46.93
2023-03-02T18:39:30.836Z,47.25
2023-03-02T18:42:03.017Z,46.59
2023-03-02T18:44:33.408Z,46.40
2023-03-02T18:47:20.615Z,46.26
2023-03-02T18:50:22.213Z,46.31
2023-03-02T18:52:54.605Z,46.06
2023-03-02T18:55:31.003Z,45.71
2023-03-02T18:58:05.203Z,46.30
2023-03-02T19:00:38.085Z,45.84
2023-03-02T19:03:06.998Z,46.57
2023-03-02T19:05:41.810Z,46.24
2023-03-02T19:08:23.166Z,45.78
2023-03-02T19:11:13.941Z,45.32
2023-03-02T19:13:50.096Z,45.19
2023-03-02T19:16:19.244Z,44.96
2023-03-02T19:18:50.602Z,44.89
2023-03-02T19:21:30.286Z,44.97
2023-03-02T19:24:03.189Z,44.97
2023-03-02T19:26:34.108Z,45.13
2023-03-02T19:29:45.388Z,45.45
2023-03-02T19:32:16.963Z,45.37
2023-03-02T19:34:53.228Z,45.38
2023-03-02T19:40:15.040Z,45.30
2023-03-02T19:42:47.197Z,45.62
2023-03-02T19:45:23.080Z,45.20
2023-03-02T19:47:56.507Z,45.63
2023-03-02T19:50:34.169Z,45.90
2023-03-02T19:55:54.289Z,45.63
2023-03-02T19:58:30.848Z,45.38
2023-03-02T20:01:05.323Z,45.50
2023-03-02T20:06:53.034Z,46.95
2023-03-02T20:09:27.080Z,45.83
2023-03-02T20:12:02.950Z,45.86
2023-03-02T20:14:34.935Z,45.96
2023-03-02T20:17:08.732Z,45.37
2023-03-02T20:19:41.117Z,45.30
2023-03-02T20:22:13.334Z,45.33
2023-03-02T20:24:47.452Z,45.38
2023-03-02T20:27:34.268Z,45.78
2023-03-02T20:30:25.122Z,46.29
2023-03-02T20:33:35.039Z,46.72
2023-03-02T20:36:08.924Z,46.22
2023-03-02T20:38:42.608Z,45.35
2023-03-02T20:41:12.572Z,47.74
2023-03-02T20:43:44.417Z,45.91
2023-03-02T20:46:31.568Z,46.15
2023-03-02T20:49:04.891Z,45.34
2023-03-02T20:51:35.516Z,45.11
2023-03-02T20:54:06.612Z,45.09
2023-03-02T20:56:36.559Z,45.64
2023-03-02T20:59:06.793Z,45.13
2023-03-02T21:01:40.782Z,45.25
2023-03-02T21:04:11.141Z,45.01
2023-03-02T21:06:44.434Z,45.05
2023-03-02T21:09:14.192Z,45.62
2023-03-02T21:11:42.986Z,45.00
2023-03-02T21:14:14.696Z,44.89
2023-03-02T21:16:46.551Z,44.73
2023-03-02T21:19:19.100Z,44.66
2023-03-02T21:21:50.772Z,44.94
2023-03-02T21:24:22.041Z,44.67
2023-03-02T21:26:54.814Z,44.64
2023-03-02T21:29:27.596Z,44.71
2023-03-02T21:32:01.291Z,44.99
2023-03-02T21:34:32.797Z,44.66
2023-03-02T21:37:04.130Z,44.80
2023-03-02T21:39:34.221Z,44.49
2023-03-02T21:42:05.148Z,44.66
2023-03-02T21:44:34.535Z,44.46
2023-03-02T21:47:04.994Z,44.47
2023-03-02T21:49:34.189Z,44.30
2023-03-02T21:52:02.924Z,44.32
2023-03-02T21:54:33.775Z,44.27
2023-03-02T21:57:02.891Z,44.15
2023-03-02T21:59:33.286Z,44.10
2023-03-02T22:02:03.268Z,44.02
2023-03-02T22:04:35.515Z,43.89
2023-03-02T22:07:05.494Z,43.85
2023-03-02T22:09:34.508Z,44.00
2023-03-02T22:12:12.716Z,43.82
2023-03-02T22:14:42.914Z,43.78
2023-03-02T22:17:32.172Z,43.84
2023-03-02T22:20:15.691Z,43.77
2023-03-02T22:22:46.771Z,43.84
2023-03-02T22:25:20.622Z,44.16
2023-03-02T22:27:50.262Z,43.71
2023-03-02T22:30:25.666Z,43.83
2023-03-02T22:33:02.078Z,43.59
2023-03-02T22:35:32.657Z,43.58
2023-03-02T22:38:16.907Z,43.75
2023-03-02T22:40:47.318Z,43.63
2023-03-02T22:43:22.361Z,43.46
2023-03-02T22:45:51.286Z,43.70
2023-03-02T22:48:24.998Z,43.71
2023-03-02T22:50:54.299Z,43.29
2023-03-02T22:53:38.183Z,43.23
2023-03-02T22:56:26.734Z,43.50
2023-03-02T22:59:04.390Z,43.20
2023-03-02T23:01:43.606Z,43.22
2023-03-02T23:04:25.475Z,43.10
2023-03-02T23:07:03.601Z,43.18
2023-03-02T23:09:35.198Z,43.20
2023-03-02T23:12:34.117Z,43.21
2023-03-02T23:15:18.806Z,43.01
2023-03-02T23:17:49.708Z,42.73
2023-03-02T23:20:20.654Z,42.73
2023-03-02T23:22:50.596Z,42.65
2023-03-02T23:25:20.512Z,42.62
2023-03-02T23:27:49.876Z,42.55
2023-03-02T23:30:22.340Z,42.53
2023-03-02T23:32:55.032Z,42.39
2023-03-02T23:35:33.224Z,42.36
2023-03-02T23:38:05.952Z,42.54
2023-03-02T23:40:36.606Z,42.21
2023-03-02T23:43:07.652Z,42.00
2023-03-02T23:45:39.164Z,41.85
2023-03-02T23:48:10.463Z,41.68
2023-03-02T23:50:39.175Z,42.03
2023-03-02T23:53:09.640Z,41.67
2023-03-02T23:55:45.102Z,42.04
2023-03-02T23:58:14.674Z,41.56
